createdAt,value
2023-06-27T00:01:41.019Z,17.26
2023-06-27T00:04:08.275Z,17.20
2023-06-27T00:06:38.294Z,17.14
2023-06-27T00:09:07.171Z,17.12
2023-06-27T00:11:33.793Z,17.08
2023-06-27T00:14:00.318Z,16.90
2023-06-27T00:16:33.565Z,17.05
2023-06-27T00:19:04.790Z,17.02
2023-06-27T00:21:32.671Z,16.97
2023-06-27T00:24:02.895Z,16.94
2023-06-27T00:26:29.698Z,17.05
2023-06-27T00:28:56.831Z,16.76
2023-06-27T00:31:23.573Z,16.84
2023-06-27T00:33:50.204Z,16.81
2023-06-27T00:36:16.686Z,16.77
2023-06-27T00:38:43.183Z,16.60
2023-06-27T00:41:09.700Z,16.74
2023-06-27T00:43:36.453Z,16.72
2023-06-27T00:46:07.909Z,16.73
2023-06-27T00:48:35.190Z,16.71
2023-06-27T00:51:02.439Z,16.68
2023-06-27T00:53:29.360Z,16.65
2023-06-27T00:55:56.272Z,16.68
2023-06-27T00:58:23.066Z,16.66
2023-06-27T01:00:49.506Z,16.65
2023-06-27T01:03:16.472Z,16.49
2023-06-27T01:05:44.013Z,16.40
2023-06-27T01:08:19.286Z,16.66
2023-06-27T01:10:53.246Z,16.67
2023-06-27T01:13:28.642Z,16.43
2023-06-27T01:15:55.885Z,16.60
2023-06-27T01:18:24.465Z,16.58
2023-06-27T01:20:51.473Z,16.42
2023-06-27T01:23:24.542Z,16.62
2023-06-27T01:25:54.139Z,16.59
2023-06-27T01:28:20.673Z,16.36
2023-06-27T01:30:47.226Z,16.24
2023-06-27T01:33:28.678Z,16.32
2023-06-27T01:36:05.732Z,16.52
2023-06-27T01:38:45.387Z,16.53
2023-06-27T01:41:18.043Z,16.45
2023-06-27T01:43:46.572Z,16.37
2023-06-27T01:46:13.851Z,16.45
2023-06-27T01:48:42.035Z,16.34
2023-06-27T01:51:09.994Z,16.41
2023-06-27T01:53:40.158Z,16.38
2023-06-27T01:56:07.970Z,16.38
2023-06-27T01:58:34.677Z,16.35
2023-06-27T02:01:01.179Z,16.37
2023-06-27T02:03:27.814Z,16.42
2023-06-27T02:05:54.314Z,16.18
2023-06-27T02:08:21.107Z,16.23
2023-06-27T02:10:47.581Z,16.47
2023-06-27T02:13:14.010Z,16.47
2023-06-27T02:15:41.373Z,16.47
2023-06-27T02:18:08.135Z,16.48
2023-06-27T02:20:34.631Z,16.46
2023-06-27T02:23:01.113Z,16.43
2023-06-27T02:25:33.385Z,16.44
2023-06-27T02:27:59.854Z,16.40
2023-06-27T02:30:26.377Z,16.40
2023-06-27T02:32:52.945Z,16.18
2023-06-27T02:35:19.632Z,16.35
2023-06-27T02:37:46.105Z,16.05
2023-06-27T02:40:13.230Z,16.37
2023-06-27T02:42:39.686Z,16.39
2023-06-27T02:45:06.797Z,16.50
2023-06-27T02:47:33.488Z,16.54
2023-06-27T02:50:00.452Z,16.53
2023-06-27T02:52:26.990Z,16.57
2023-06-27T02:54:53.578Z,16.54
2023-06-27T02:57:21.289Z,16.49
2023-06-27T02:59:47.727Z,16.47
2023-06-27T03:02:14.171Z,16.45
2023-06-27T03:04:40.741Z,16.38
2023-06-27T03:07:07.455Z,16.36
2023-06-27T03:09:36.401Z,15.89
2023-06-27T03:12:02.869Z,16.22
2023-06-27T03:14:30.124Z,16.25
2023-06-27T03:16:56.631Z,16.23
2023-06-27T03:19:38.323Z,16.20
2023-06-27T03:22:09.626Z,16.14
2023-06-27T03:24:36.291Z,16.16
2023-06-27T03:27:02.816Z,16.15
2023-06-27T03:29:29.260Z,16.06
2023-06-27T03:31:58.518Z,16.15
2023-06-27T03:34:25.449Z,15.95
2023-06-27T03:36:52.369Z,15.88
2023-06-27T03:39:18.895Z,16.11
2023-06-27T03:41:45.677Z,16.17
2023-06-27T03:44:12.264Z,16.17
2023-06-27T03:46:38.752Z,16.18
2023-06-27T03:49:05.292Z,16.20
2023-06-27T03:51:34.049Z,15.81
2023-06-27T03:54:03.254Z,16.17
2023-06-27T03:56:29.840Z,16.18
2023-06-27T03:58:56.244Z,16.19
2023-06-27T04:01:22.765Z,16.24
2023-06-27T04:03:49.381Z,16.13
2023-06-27T04:06:15.969Z,16.21
2023-06-27T04:08:42.502Z,16.12
2023-06-27T04:11:09.028Z,16.36
2023-06-27T04:13:35.526Z,16.36
2023-06-27T04:16:01.989Z,16.39
2023-06-27T04:18:28.487Z,16.43
2023-06-27T04:20:54.990Z,16.37
2023-06-27T04:23:21.447Z,16.27
2023-06-27T04:26:08.680Z,16.52
2023-06-27T04:28:36.076Z,16.61
2023-06-27T04:31:03.237Z,16.34
2023-06-27T04:33:30.565Z,16.65
2023-06-27T04:36:05.356Z,16.69
2023-06-27T04:38:38.967Z,16.62
2023-06-27T04:41:06.324Z,16.78
2023-06-27T04:43:34.897Z,16.78
2023-06-27T04:46:03.162Z,16.85
2023-06-27T04:48:29.970Z,16.70
2023-06-27T04:50:57.667Z,16.91
2023-06-27T04:53:27.298Z,16.88
2023-06-27T04:55:54.662Z,16.84
2023-06-27T04:58:22.202Z,16.69
2023-06-27T05:00:49.493Z,16.51
2023-06-27T05:03:16.643Z,16.20
2023-06-27T05:05:43.810Z,16.33
2023-06-27T05:08:11.817Z,16.26
2023-06-27T05:10:38.630Z,16.23
2023-06-27T05:13:05.223Z,16.14
2023-06-27T05:15:31.843Z,16.22
2023-06-27T05:18:07.582Z,16.27
2023-06-27T05:20:34.146Z,16.02
2023-06-27T05:23:02.268Z,16.24
2023-06-27T05:25:30.372Z,16.19
2023-06-27T05:27:56.940Z,16.23
2023-06-27T05:30:23.445Z,16.25
2023-06-27T05:32:49.986Z,16.28
2023-06-27T05:35:16.544Z,16.29
2023-06-27T05:37:43.017Z,16.29
2023-06-27T05:40:10.274Z,16.22
2023-06-27T05:42:39.798Z,16.28
2023-06-27T05:45:06.774Z,16.32
2023-06-27T05:47:33.423Z,16.34
2023-06-27T05:50:00.189Z,16.34
2023-06-27T05:52:26.852Z,16.38
2023-06-27T05:54:53.428Z,16.38
2023-06-27T05:57:19.995Z,16.42
2023-06-27T05:59:46.619Z,16.47
2023-06-27T06:02:13.298Z,16.25
2023-06-27T06:04:39.866Z,16.47
2023-06-27T06:07:06.495Z,16.56
2023-06-27T06:09:33.358Z,16.58
2023-06-27T06:11:59.890Z,16.55
2023-06-27T06:14:26.466Z,16.68
2023-06-27T06:16:52.946Z,16.73
2023-06-27T06:19:20.036Z,16.78
2023-06-27T06:21:46.693Z,16.81
2023-06-27T06:24:13.863Z,16.87
2023-06-27T06:26:40.395Z,16.90
2023-06-27T06:29:07.621Z,17.01
2023-06-27T06:31:34.205Z,17.00
2023-06-27T06:34:00.794Z,17.05
2023-06-27T06:36:28.329Z,17.14
2023-06-27T06:38:55.192Z,17.29
2023-06-27T06:41:22.151Z,17.39
2023-06-27T06:43:48.669Z,17.29
2023-06-27T06:46:15.415Z,17.63
2023-06-27T06:48:42.006Z,17.79
2023-06-27T06:51:09.365Z,17.91
2023-06-27T06:53:36.077Z,18.03
2023-06-27T06:56:02.534Z,18.15
2023-06-27T06:58:29.106Z,18.33
2023-06-27T07:00:55.949Z,18.40
2023-06-27T07:03:22.395Z,18.59
2023-06-27T07:05:48.843Z,18.72
2023-06-27T07:08:15.360Z,18.81
2023-06-27T07:10:41.874Z,18.78
2023-06-27T07:13:08.423Z,18.82
2023-06-27T07:15:34.928Z,18.60
2023-06-27T07:18:01.492Z,18.59
2023-06-27T07:20:28.208Z,18.78
2023-06-27T07:22:54.753Z,18.71
2023-06-27T07:25:21.394Z,18.65
2023-06-27T07:27:47.874Z,18.66
2023-06-27T07:30:14.467Z,18.63
2023-06-27T07:32:40.975Z,18.58
2023-06-27T07:35:07.961Z,18.56
2023-06-27T07:37:34.418Z,18.53
2023-06-27T07:40:00.863Z,18.49
2023-06-27T07:42:27.357Z,18.45
2023-06-27T07:44:54.477Z,18.45
2023-06-27T07:47:21.071Z,18.38
2023-06-27T07:49:47.596Z,18.17
2023-06-27T07:52:14.119Z,18.20
2023-06-27T07:54:40.626Z,18.09
2023-06-27T07:57:07.494Z,17.97
2023-06-27T07:59:34.149Z,17.89
2023-06-27T08:02:00.853Z,17.58
2023-06-27T08:04:27.576Z,17.65
2023-06-27T08:06:54.503Z,17.32
2023-06-27T08:09:23.997Z,17.49
2023-06-27T08:11:51.363Z,17.23
2023-06-27T08:14:18.340Z,17.40
2023-06-27T08:16:44.852Z,17.66
2023-06-27T08:19:12.405Z,17.82
2023-06-27T08:21:38.900Z,17.95
2023-06-27T08:24:06.357Z,18.05
2023-06-27T08:26:32.861Z,18.13
2023-06-27T08:28:59.298Z,18.12
2023-06-27T08:31:25.806Z,18.08
2023-06-27T08:33:52.407Z,17.98
2023-06-27T08:36:18.859Z,17.74
2023-06-27T08:38:45.341Z,17.81
2023-06-27T08:41:12.492Z,17.79
2023-06-27T08:43:40.362Z,17.75
2023-06-27T08:46:09.594Z,17.72
2023-06-27T08:48:40.814Z,17.76
2023-06-27T08:51:08.235Z,17.79
2023-06-27T08:53:37.671Z,17.90
2023-06-27T08:56:09.601Z,17.99
2023-06-27T08:58:53.315Z,18.12
2023-06-27T09:01:22.957Z,18.27
2023-06-27T09:03:49.555Z,18.44
2023-06-27T09:06:18.102Z,18.62
2023-06-27T09:08:44.961Z,18.48
2023-06-27T09:11:11.681Z,19.07
2023-06-27T09:13:38.761Z,19.31
2023-06-27T09:16:06.750Z,19.59
2023-06-27T09:18:36.397Z,19.91
2023-06-27T09:21:03.050Z,20.10
2023-06-27T09:23:31.842Z,20.57
2023-06-27T09:26:12.891Z,20.90
2023-06-27T09:28:52.804Z,21.23
2023-06-27T09:31:20.952Z,21.48
2023-06-27T09:33:50.157Z,21.64
2023-06-27T09:39:05.288Z,22.20
2023-06-27T09:41:51.088Z,22.45
2023-06-27T09:44:23.066Z,22.70
2023-06-27T09:46:51.371Z,22.92
2023-06-27T09:49:18.469Z,22.93
2023-06-27T09:51:50.764Z,23.17
2023-06-27T09:54:27.118Z,23.13
2023-06-27T09:56:54.256Z,23.25
2023-06-27T09:59:24.728Z,23.47
2023-06-27T10:01:52.785Z,23.58
2023-06-27T10:04:19.799Z,23.81
2023-06-27T10:06:46.705Z,24.09
2023-06-27T10:09:13.950Z,24.32
2023-06-27T10:11:40.818Z,24.52
2023-06-27T10:14:07.924Z,24.76
2023-06-27T10:16:35.640Z,24.91
2023-06-27T10:19:03.112Z,24.96
2023-06-27T10:21:30.797Z,24.96
2023-06-27T10:24:00.162Z,24.93
2023-06-27T10:26:27.998Z,25.00
2023-06-27T10:28:55.551Z,25.02
2023-06-27T10:31:46.392Z,25.26
2023-06-27T10:34:25.698Z,25.36
2023-06-27T10:36:55.263Z,25.54
2023-06-27T10:39:26.764Z,25.73
2023-06-27T10:42:16.330Z,25.83
2023-06-27T10:44:55.129Z,25.98
2023-06-27T10:47:21.770Z,25.96
2023-06-27T10:49:49.697Z,26.02
2023-06-27T10:52:24.211Z,26.12
2023-06-27T10:55:16.153Z,26.15
2023-06-27T11:01:01.723Z,25.33
2023-06-27T11:03:33.927Z,25.24
2023-06-27T11:06:00.818Z,25.02
2023-06-27T11:08:29.581Z,24.78
2023-06-27T11:11:09.886Z,24.61
2023-06-27T11:13:45.065Z,24.43
2023-06-27T11:16:13.307Z,24.31
2023-06-27T11:18:40.800Z,24.33
2023-06-27T11:21:07.292Z,24.54
2023-06-27T11:23:35.018Z,24.67
2023-06-27T11:26:01.662Z,24.76
2023-06-27T11:28:28.132Z,24.90
2023-06-27T11:31:01.733Z,24.91
2023-06-27T11:33:28.832Z,24.77
2023-06-27T11:36:01.474Z,24.56
2023-06-27T11:38:28.998Z,24.70
2023-06-27T11:40:55.524Z,24.41
2023-06-27T11:43:22.013Z,24.14
2023-06-27T11:45:50.438Z,23.87
2023-06-27T11:48:17.275Z,23.64
2023-06-27T11:51:07.904Z,23.59
2023-06-27T11:53:36.856Z,23.48
2023-06-27T11:56:20.640Z,23.57
2023-06-27T11:58:49.203Z,23.75
2023-06-27T12:01:18.042Z,23.98
2023-06-27T12:03:50.322Z,24.05
2023-06-27T12:06:28.072Z,24.46
2023-06-27T12:08:55.334Z,24.66
2023-06-27T12:11:35.357Z,25.00
2023-06-27T12:14:03.215Z,25.05
2023-06-27T12:16:33.955Z,25.00
2023-06-27T12:19:05.450Z,24.65
2023-06-27T12:21:32.432Z,23.85
2023-06-27T12:23:58.931Z,23.34
2023-06-27T12:26:25.468Z,22.43
2023-06-27T12:28:59.509Z,21.97
2023-06-27T12:31:26.781Z,21.33
2023-06-27T12:33:54.121Z,20.76
2023-06-27T12:36:25.457Z,20.63
2023-06-27T12:38:53.116Z,20.48
2023-06-27T12:41:20.875Z,20.24
2023-06-27T12:43:48.020Z,20.33
2023-06-27T12:46:15.199Z,20.37
2023-06-27T12:48:42.908Z,20.42
2023-06-27T12:51:09.632Z,20.77
2023-06-27T12:53:36.436Z,21.02
2023-06-27T12:56:05.848Z,21.36
2023-06-27T12:58:33.283Z,21.70
2023-06-27T13:01:01.590Z,21.97
2023-06-27T13:03:29.136Z,22.35
2023-06-27T13:05:57.185Z,22.71
2023-06-27T13:08:23.829Z,22.82
2023-06-27T13:10:50.819Z,23.14
2023-06-27T13:13:20.343Z,23.25
2023-06-27T13:15:59.778Z,23.31
2023-06-27T13:18:31.637Z,23.52
2023-06-27T13:20:58.218Z,23.72
2023-06-27T13:23:24.665Z,23.73
2023-06-27T13:25:51.124Z,23.73
2023-06-27T13:28:17.557Z,23.69
2023-06-27T13:30:44.496Z,23.67
2023-06-27T13:33:11.675Z,23.75
2023-06-27T13:35:38.192Z,23.76
2023-06-27T13:38:05.620Z,23.75
2023-06-27T13:40:32.065Z,24.04
2023-06-27T13:42:58.634Z,24.08
2023-06-27T13:45:25.207Z,24.44
2023-06-27T13:47:52.340Z,24.57
2023-06-27T13:50:19.734Z,24.72
2023-06-27T13:52:46.224Z,24.57
2023-06-27T13:55:12.833Z,24.99
2023-06-27T13:57:39.322Z,24.57
2023-06-27T14:00:06.935Z,24.78
2023-06-27T14:02:34.474Z,24.66
2023-06-27T14:05:01.361Z,24.58
2023-06-27T14:07:28.010Z,24.58
2023-06-27T14:09:54.546Z,24.54
2023-06-27T14:12:21.688Z,24.67
2023-06-27T14:14:50.704Z,24.73
2023-06-27T14:17:17.424Z,24.62
2023-06-27T14:19:44.700Z,24.60
2023-06-27T14:22:12.363Z,24.79
2023-06-27T14:24:38.857Z,24.68
2023-06-27T14:27:05.680Z,24.80
2023-06-27T14:29:32.149Z,24.78
2023-06-27T14:31:58.631Z,25.09
2023-06-27T14:34:25.141Z,25.17
2023-06-27T14:36:53.183Z,25.19
2023-06-27T14:39:22.958Z,25.32
2023-06-27T14:41:49.550Z,25.12
2023-06-27T14:44:16.039Z,25.43
2023-06-27T14:46:42.597Z,25.58
2023-06-27T14:49:09.424Z,25.53
2023-06-27T14:51:36.846Z,25.69
2023-06-27T14:54:04.736Z,25.79
2023-06-27T14:56:31.395Z,25.76
2023-06-27T14:58:57.928Z,25.83
2023-06-27T15:01:26.376Z,25.91
2023-06-27T15:03:53.704Z,25.91
2023-06-27T15:06:21.572Z,25.83
2023-06-27T15:08:49.928Z,25.68
2023-06-27T15:11:16.462Z,25.62
2023-06-27T15:13:42.965Z,25.43
2023-06-27T15:16:09.794Z,25.36
2023-06-27T15:18:36.718Z,25.25
2023-06-27T15:21:03.451Z,24.92
2023-06-27T15:23:38.051Z,24.50
2023-06-27T15:26:07.329Z,24.17
2023-06-27T15:28:34.156Z,23.82
2023-06-27T15:31:00.701Z,23.64
2023-06-27T15:33:27.334Z,23.44
2023-06-27T15:35:53.770Z,23.31
2023-06-27T15:38:20.284Z,23.19
2023-06-27T15:40:49.841Z,23.09
2023-06-27T15:43:16.409Z,23.02
2023-06-27T15:45:43.063Z,22.98
2023-06-27T15:48:09.624Z,22.99
2023-06-27T15:50:36.174Z,23.14
2023-06-27T15:53:02.756Z,23.14
2023-06-27T15:55:29.306Z,23.19
2023-06-27T15:57:55.885Z,23.30
2023-06-27T16:00:22.586Z,23.33
2023-06-27T16:02:49.331Z,23.32
2023-06-27T16:05:16.326Z,23.54
2023-06-27T16:07:43.649Z,23.52
2023-06-27T16:10:11.133Z,23.41
2023-06-27T16:12:37.885Z,23.35
2023-06-27T16:15:04.856Z,23.28
2023-06-27T16:17:31.400Z,23.20
2023-06-27T16:19:58.095Z,22.83
2023-06-27T16:22:24.598Z,22.92
2023-06-27T16:24:51.134Z,22.88
2023-06-27T16:27:17.628Z,22.82
2023-06-27T16:29:44.188Z,22.55
2023-06-27T16:32:10.632Z,22.59
2023-06-27T16:34:40.636Z,22.40
2023-06-27T16:37:08.199Z,21.84
2023-06-27T16:39:35.553Z,22.21
2023-06-27T16:42:02.087Z,22.10
2023-06-27T16:44:28.595Z,21.99
2023-06-27T16:46:55.519Z,21.89
2023-06-27T16:49:22.095Z,21.80
2023-06-27T16:51:48.575Z,21.64
2023-06-27T16:54:16.146Z,21.54
2023-06-27T16:56:42.591Z,21.54
2023-06-27T16:59:09.051Z,21.38
2023-06-27T17:01:35.661Z,21.43
2023-06-27T17:04:02.152Z,21.46
2023-06-27T17:06:28.683Z,21.53
2023-06-27T17:08:55.201Z,21.77
2023-06-27T17:11:22.168Z,21.90
2023-06-27T17:13:49.493Z,22.16
2023-06-27T17:16:16.118Z,22.33
2023-06-27T17:18:42.584Z,22.36
2023-06-27T17:21:09.141Z,22.50
2023-06-27T17:23:37.202Z,22.54
2023-06-27T17:26:03.847Z,22.61
2023-06-27T17:28:30.545Z,22.50
2023-06-27T17:30:57.335Z,22.66
2023-06-27T17:33:26.528Z,22.88
2023-06-27T17:35:53.167Z,22.97
2023-06-27T17:38:19.664Z,23.08
2023-06-27T17:40:46.134Z,23.08
2023-06-27T17:43:12.629Z,23.07
2023-06-27T17:45:39.389Z,23.07
2023-06-27T17:48:06.522Z,22.97
2023-06-27T17:50:33.064Z,23.10
2023-06-27T17:53:02.826Z,23.11
2023-06-27T17:55:29.358Z,22.97
2023-06-27T17:57:55.859Z,22.91
2023-06-27T18:00:22.808Z,22.58
2023-06-27T18:02:49.601Z,22.59
2023-06-27T18:05:16.216Z,22.38
2023-06-27T18:07:42.768Z,22.02
2023-06-27T18:10:09.742Z,21.65
2023-06-27T18:12:36.311Z,21.84
2023-06-27T18:15:04.248Z,21.72
2023-06-27T18:17:30.920Z,21.61
2023-06-27T18:19:57.601Z,21.51
2023-06-27T18:22:26.426Z,21.42
2023-06-27T18:24:53.686Z,21.58
2023-06-27T18:27:20.605Z,21.61
2023-06-27T18:29:49.108Z,21.82
2023-06-27T18:32:16.170Z,22.02
2023-06-27T18:34:42.706Z,22.14
2023-06-27T18:37:09.739Z,22.05
2023-06-27T18:39:36.880Z,22.11
2023-06-27T18:42:03.996Z,22.37
2023-06-27T18:44:31.467Z,22.41
2023-06-27T18:46:58.126Z,22.41
2023-06-27T18:49:24.601Z,22.40
2023-06-27T18:51:51.140Z,22.30
2023-06-27T18:54:17.673Z,22.17
2023-06-27T18:56:44.249Z,22.02
2023-06-27T18:59:10.771Z,21.82
2023-06-27T19:01:37.552Z,21.54
2023-06-27T19:04:04.309Z,21.45
2023-06-27T19:06:31.358Z,21.25
2023-06-27T19:08:58.065Z,20.80
2023-06-27T19:11:28.534Z,20.98
2023-06-27T19:13:56.627Z,20.83
2023-06-27T19:16:23.231Z,20.63
2023-06-27T19:18:50.205Z,20.55
2023-06-27T19:21:18.258Z,20.45
2023-06-27T19:23:44.768Z,20.31
2023-06-27T19:26:11.644Z,20.14
2023-06-27T19:28:38.182Z,20.09
2023-06-27T19:31:04.812Z,19.71
2023-06-27T19:33:31.377Z,19.86
2023-06-27T19:35:59.487Z,19.78
2023-06-27T19:38:26.125Z,19.70
2023-06-27T19:40:53.260Z,19.61
2023-06-27T19:43:19.906Z,19.52
2023-06-27T19:45:46.513Z,19.45
2023-06-27T19:48:13.000Z,19.31
2023-06-27T19:50:40.063Z,19.26
2023-06-27T19:53:06.974Z,19.05
2023-06-27T19:55:33.573Z,19.14
2023-06-27T19:58:00.120Z,19.06
2023-06-27T20:00:26.727Z,18.98
2023-06-27T20:02:53.279Z,18.79
2023-06-27T20:05:19.894Z,18.75
2023-06-27T20:07:48.286Z,18.74
2023-06-27T20:10:16.120Z,18.66
2023-06-27T20:12:43.979Z,18.56
2023-06-27T20:15:11.040Z,18.52
2023-06-27T20:17:37.829Z,18.45
2023-06-27T20:20:05.280Z,18.34
2023-06-27T20:22:31.738Z,18.27
2023-06-27T20:24:58.444Z,18.04
2023-06-27T20:27:25.572Z,18.16
2023-06-27T20:29:56.334Z,18.10
2023-06-27T20:32:22.955Z,18.01
2023-06-27T20:34:49.594Z,17.78
2023-06-27T20:37:16.111Z,17.84
2023-06-27T20:39:42.942Z,17.83
2023-06-27T20:42:09.478Z,17.76
2023-06-27T20:44:35.973Z,17.69
2023-06-27T20:47:02.463Z,17.64
2023-06-27T20:49:28.953Z,17.56
2023-06-27T20:51:55.472Z,17.53
2023-06-27T20:54:21.949Z,17.47
2023-06-27T20:56:48.517Z,17.34
2023-06-27T20:59:14.963Z,17.36
2023-06-27T21:01:41.643Z,17.29
2023-06-27T21:04:08.416Z,17.23
2023-06-27T21:06:34.948Z,17.22
2023-06-27T21:09:01.407Z,17.16
2023-06-27T21:11:27.916Z,17.01
2023-06-27T21:13:54.334Z,17.08
2023-06-27T21:16:20.867Z,17.02
2023-06-27T21:18:47.466Z,16.98
2023-06-27T21:21:14.005Z,16.92
2023-06-27T21:23:40.631Z,16.86
2023-06-27T21:26:07.293Z,16.82
2023-06-27T21:28:33.858Z,16.80
2023-06-27T21:31:02.800Z,16.68
2023-06-27T21:33:30.957Z,16.70
2023-06-27T21:35:57.883Z,16.29
2023-06-27T21:38:24.532Z,16.62
2023-06-27T21:40:50.980Z,16.59
2023-06-27T21:43:17.452Z,16.29
2023-06-27T21:45:43.951Z,16.50
2023-06-27T21:48:10.610Z,16.45
2023-06-27T21:50:38.665Z,16.32
2023-06-27T21:53:05.550Z,16.39
2023-06-27T21:55:32.204Z,16.15
2023-06-27T21:57:58.829Z,16.33
2023-06-27T22:00:25.833Z,16.31
2023-06-27T22:02:52.610Z,16.23
2023-06-27T22:05:20.524Z,16.26
2023-06-27T22:07:51.452Z,16.25
2023-06-27T22:10:19.025Z,16.23
2023-06-27T22:12:46.388Z,16.00
2023-06-27T22:15:13.370Z,16.18
2023-06-27T22:17:40.114Z,16.16
2023-06-27T22:20:08.624Z,16.05
2023-06-27T22:22:35.777Z,16.09
2023-06-27T22:25:03.460Z,15.86
2023-06-27T22:27:30.497Z,16.04
2023-06-27T22:29:57.002Z,16.00
2023-06-27T22:32:23.481Z,15.96
2023-06-27T22:34:50.673Z,15.93
2023-06-27T22:37:17.142Z,15.78
2023-06-27T22:39:43.641Z,15.83
2023-06-27T22:42:10.358Z,15.80
2023-06-27T22:44:36.925Z,15.76
2023-06-27T22:47:03.724Z,15.69
2023-06-27T22:49:30.171Z,15.69
2023-06-27T22:51:56.725Z,15.40
2023-06-27T22:54:23.271Z,15.43
2023-06-27T22:56:49.941Z,15.61
2023-06-27T22:59:16.422Z,15.57
2023-06-27T23:01:42.955Z,15.50
2023-06-27T23:04:09.385Z,15.50
2023-06-27T23:06:35.843Z,15.42
2023-06-27T23:09:02.312Z,15.36
2023-06-27T23:11:31.880Z,15.38
2023-06-27T23:13:59.013Z,15.35
2023-06-27T23:16:26.984Z,15.31
2023-06-27T23:18:58.577Z,15.08
2023-06-27T23:21:26.249Z,15.18
2023-06-27T23:23:56.032Z,14.86
2023-06-27T23:26:23.144Z,15.12
2023-06-27T23:28:51.380Z,15.10
2023-06-27T23:31:20.905Z,15.03
2023-06-27T23:33:47.697Z,15.02
2023-06-27T23:36:14.668Z,14.95
2023-06-27T23:38:41.174Z,14.95
2023-06-27T23:41:07.971Z,14.86
2023-06-27T23:43:34.419Z,14.89
2023-06-27T23:46:00.953Z,14.88
2023-06-27T23:48:27.758Z,14.85
2023-06-27T23:50:54.270Z,14.85
2023-06-27T23:53:20.782Z,14.82
2023-06-27T23:55:47.205Z,14.80
2023-06-27T23:58:13.820Z,14.80
